Stations météo

réclame
Mon MeteoGroup
Zeebrugge, Belgique (6418): Température de l'air & dewpoint: 18.08.2019 00:00:00 - 24.08.2019 00:00:00 (CEST)Zeebrugge, Belgique (6418): Vitesse du vent & gusts: 18.08.2019 00:00:00 - 24.08.2019 00:00:00 (CEST)Zeebrugge, Belgique (6418): Direction du vent: 18.08.2019 00:00:00 - 24.08.2019 00:00:00 (CEST)Zeebrugge, Belgique (6418): reduced air pressure: 18.08.2019 00:00:00 - 24.08.2019 00:00:00 (CEST)Zeebrugge, Belgique (6418): Ensoleillement: 18.08.2019 00:00:00 - 24.08.2019 00:00:00 (CEST)Zeebrugge, Belgique (6418): Quantités de précipitations: 18.08.2019 00:00:00 - 24.08.2019 00:00:00 (CEST)
Date & Time tt [°C] td [°C] ff [km/h] ff [knt] fx [km/h] fx [knt] dd ppp [hPa] sd [min] rr [mm]
24.08.2019 00:00:00 20,0 15,6 13 7 18 10 ENE 1023,0 0 0,0
23.08.2019 23:00:00 20,5 15,3 15 8 26 14 ENE 1023,1 0 0,0
23.08.2019 22:00:00 20,9 15,0 19 10 27 15 ENE 1023,2 0 0,0
23.08.2019 21:00:00 21,1 16,1 14 7 19 10 NE 1023,2 29 0,0
23.08.2019 20:00:00 20,7 15,7 18 10 27 15 NNE 1023,2 60 0,0
23.08.2019 19:00:00 20,8 15,4 19 10 25 13 NNE 1023,7 60 0,0
23.08.2019 18:00:00 20,7 15,2 19 11 25 13 NNE 1024,3 60 0,0
23.08.2019 17:00:00 20,6 14,3 20 11 24 13 NNE 1024,7 60 0,0
23.08.2019 16:00:00 20,7 13,9 17 9 19 11 NNE 1025,2 60 0,0
23.08.2019 15:00:00 20,2 13,9 14 7 18 10 NNE 1025,5 60 0,0
23.08.2019 14:00:00 20,0 13,9 11 6 16 8 NNE 1025,8 60 0,0
23.08.2019 13:00:00 19,5 14,5 10 6 13 7 NNE 1026,1 60 0,0
23.08.2019 12:00:00 19,1 14,4 9 5 10 5 N 1026,5 60 0,0
23.08.2019 11:00:00 19,2 15,3 4 2 6 3 N 1026,6 60 0,0
23.08.2019 10:00:00 16,4 13,1 6 3 12 7 S 1026,5 60 0,0
23.08.2019 09:00:00 14,7 11,6 10 5 13 7 SSE 1026,5 60 0,0
23.08.2019 08:00:00 14,3 11,0 11 6 13 7 S 1026,2 41 0,0
23.08.2019 07:00:00 14,3 10,3 11 6 14 7 S 1025,9 0 0,0
23.08.2019 06:00:00 14,7 9,9 9 5 13 7 S 1025,9 0 0,0
23.08.2019 05:00:00 15,2 9,8 11 6 15 8 S 1026,1 0 0,0
23.08.2019 04:00:00 15,5 9,8 11 6 18 10 SSW 1026,2 0 0,0
23.08.2019 03:00:00 15,5 9,8 13 7 16 9 S 1026,2 0 0,0
23.08.2019 02:00:00 16,0 9,7 11 6 17 9 SSW 1026,2 0 0,0
23.08.2019 01:00:00 17,0 10,1 12 7 18 10 SSW 1026,2 0 0,0
23.08.2019 00:00:00 17,5 10,5 11 6 14 8 SSW 1026,2 0 0,0
22.08.2019 23:00:00 18,0 11,8 9 5 12 7 S 1026,4 0 0,0
22.08.2019 22:00:00 18,8 11,2 9 5 18 10 SSW 1026,1 0 0,0
22.08.2019 21:00:00 19,0 11,0 16 8 23 12 SSW 1025,2 38 0,0
22.08.2019 20:00:00 19,7 11,1 14 8 23 12 WSW 1025,7 60 0,0
22.08.2019 19:00:00 20,0 11,8 16 8 25 13 W 1025,7 60 0,0
22.08.2019 18:00:00 20,5 10,5 17 9 24 13 W 1025,8 60 0,0
22.08.2019 17:00:00 20,5 10,0 18 10 27 15 W 1026,0 60 0,0
22.08.2019 16:00:00 20,3 11,2 18 10 26 14 W 1026,0 60 0,0
22.08.2019 15:00:00 20,4 11,0 20 11 28 15 W 1026,3 60 0,0
22.08.2019 14:00:00 20,0 11,6 18 10 29 16 W 1026,5 60 0,0
22.08.2019 13:00:00 19,7 12,6 20 11 28 15 W 1026,8 60 0,0
22.08.2019 12:00:00 19,1 12,2 16 8 24 13 W 1026,7 60 0,0
22.08.2019 11:00:00 18,5 13,2 17 9 24 13 W 1026,4 60 0,0
22.08.2019 10:00:00 18,3 14,2 16 9 23 13 W 1026,1 60 0,0
22.08.2019 09:00:00 16,8 13,6 9 5 21 11 SW 1026,1 60 0,0
22.08.2019 08:00:00 14,9 11,8 11 6 16 9 SW 1025,8 37 0,0
22.08.2019 07:00:00 15,0 11,7 11 6 15 8 SSW 1025,3 0 0,0
22.08.2019 06:00:00 14,7 11,0 9 5 16 9 SSW 1025,1 0 0,0
22.08.2019 05:00:00 16,1 12,3 14 7 17 9 SSE 1025,1 0 0,0
22.08.2019 04:00:00 16,0 11,9 6 3 9 5 SSE 1025,4 0 0,0
22.08.2019 03:00:00 16,4 11,9 4 2 12 6 S 1025,8 0 0,0
22.08.2019 02:00:00 16,4 11,4 7 4 17 9 SSW 1026,0 0 0,0
22.08.2019 01:00:00 17,2 11,9 13 7 16 9 SSE 1026,2 0 0,0
22.08.2019 00:00:00 17,5 11,8 7 4 17 9 ESE 1026,5 0 0,0
21.08.2019 23:00:00 18,2 12,4 14 8 17 9 E 1026,6 0 0,0
21.08.2019 22:00:00 18,7 12,6 11 6 18 10 NE 1026,9 0 0,0
21.08.2019 21:00:00 18,7 12,3 15 8 19 11 NE 1026,6 29 0,0
21.08.2019 20:00:00 18,9 12,3 14 8 19 10 NNE 1026,5 60 0,0
21.08.2019 19:00:00 19,1 12,0 15 8 18 10 N 1026,7 60 0,0
21.08.2019 18:00:00 19,2 12,0 14 8 19 10 N 1027,1 60 0,0
21.08.2019 17:00:00 19,3 12,0 15 8 18 10 N 1027,3 60 0,0
21.08.2019 16:00:00 19,7 12,2 15 8 18 10 NNW 1027,6 60 0,0
21.08.2019 15:00:00 20,5 12,2 14 8 18 10 NNW 1028,1 60 0,0
21.08.2019 14:00:00 19,4 12,6 14 8 16 8 NNW 1028,2 46 0,0
21.08.2019 13:00:00 19,7 12,6 10 5 15 8 NW 1028,4 28 0,0
21.08.2019 12:00:00 19,8 14,1 6 3 12 7 W 1028,8 60 0,0
21.08.2019 11:00:00 17,7 15,7 8 4 12 6 SSW 1028,8 60 0,0
21.08.2019 10:00:00 15,6 14,2 8 4 14 8 S 1028,8 60 0,0
21.08.2019 09:00:00 13,8 12,6 13 7 18 10 S 1028,5 60 0,0
21.08.2019 08:00:00 13,2 12,0 14 8 20 11 S 1028,2 34 0,0
21.08.2019 07:00:00 13,3 11,8 15 8 19 11 SSW 1027,9 0 0,0
21.08.2019 06:00:00 13,7 12,1 14 7 19 10 S 1027,4 0 0,0
21.08.2019 05:00:00 13,7 11,8 14 8 18 10 S 1027,1 0 0,0
21.08.2019 04:00:00 13,8 11,5 14 8 18 10 S 1027,2 0 0,0
21.08.2019 03:00:00 14,3 11,6 15 8 20 11 SSW 1027,2 0 0,0
21.08.2019 02:00:00 14,7 11,5 14 8 21 11 SSW 1027,2 0 0,0
21.08.2019 01:00:00 15,2 11,1 16 9 21 12 SSW 1027,0 0 0,0
21.08.2019 00:00:00 15,7 10,6 16 9 23 12 SSW 1026,9 0 0,0
20.08.2019 23:00:00 17,5 12,0 16 9 31 17 SW 1026,8 0 0,0
20.08.2019 22:00:00 17,8 11,9 18 10 31 17 W 1026,5 0 0,0
20.08.2019 21:00:00 18,1 11,5 22 12 34 18 W 1025,8 33 0,0
20.08.2019 20:00:00 18,5 11,2 25 14 35 19 W 1025,3 60 0,0
20.08.2019 19:00:00 19,0 11,6 22 12 33 18 W 1025,2 60 0,0
20.08.2019 18:00:00 19,5 11,0 22 12 34 18 WNW 1024,6 60 0,0
20.08.2019 17:00:00 19,7 11,4 19 10 29 16 W 1024,3 60 0,0
20.08.2019 16:00:00 19,5 11,2 20 11 33 18 W 1024,1 60 0,0
20.08.2019 15:00:00 19,2 11,2 21 11 35 19 W 1023,9 60 0,0
20.08.2019 14:00:00 19,2 10,6 22 12 35 19 W 1023,7 60 0,0
20.08.2019 13:00:00 18,7 11,5 23 12 36 19 WSW 1023,3 59 0,0
20.08.2019 12:00:00 18,2 11,9 25 13 38 20 WSW 1023,0 60 0,0
20.08.2019 11:00:00 17,7 13,7 22 12 31 17 WSW 1022,8 60 0,0
20.08.2019 10:00:00 16,7 14,6 16 9 26 14 WSW 1022,2 59 0,0
20.08.2019 09:00:00 14,6 13,0 15 8 25 13 SSW 1021,8 60 0,0
20.08.2019 08:00:00 13,7 12,1 18 10 25 14 SSW 1021,4 30 0,0
20.08.2019 07:00:00 13,5 11,8 18 10 26 14 SSW 1020,6 0 0,0
20.08.2019 06:00:00 13,6 11,9 18 10 25 13 SSW 1020,3 0 0,0
20.08.2019 05:00:00 13,7 11,8 18 10 25 13 SSW 1020,2 0 0,0
20.08.2019 04:00:00 14,1 12,0 19 10 26 14 SSW 1019,9 0 0,0
20.08.2019 03:00:00 14,4 12,0 19 10 29 15 SSW 1019,9 0 0,0
20.08.2019 02:00:00 14,4 11,6 18 10 29 16 SW 1019,7 0 0,0
20.08.2019 01:00:00 15,0 11,5 22 12 34 19 SSW 1019,4 0 0,0
20.08.2019 00:00:00 15,5 10,8 24 13 36 19 SSW 1018,9 0 0,0
19.08.2019 23:00:00 16,1 10,7 24 13 36 19 SSW 1018,7 0 0,0
19.08.2019 22:00:00 16,8 10,5 23 13 36 19 SSW 1018,6 0 0,0
19.08.2019 21:00:00 18,1 10,2 26 14 51 27 SW 1018,0 33 0,0
19.08.2019 20:00:00 18,8 11,0 32 18 51 27 WSW 1017,7 60 0,0
19.08.2019 19:00:00 19,1 12,2 34 19 50 27 WSW 1017,4 60 0,0
19.08.2019 18:00:00 19,4 12,8 34 18 53 29 WSW 1017,1 60 0,0
19.08.2019 17:00:00 19,7 12,3 29 16 48 26 WSW 1016,9 60 0,0
19.08.2019 16:00:00 20,0 12,6 27 14 46 25 WSW 1016,7 47 0,0
19.08.2019 15:00:00 19,7 12,4 31 17 45 25 WSW 1016,5 55 0,0
19.08.2019 14:00:00 19,1 12,2 29 16 49 27 WSW 1016,2 49 0,0
19.08.2019 13:00:00 18,6 12,6 32 18 49 26 WSW 1015,8 56 0,0
19.08.2019 12:00:00 17,1 13,9 24 13 47 26 SW 1015,4 18 0,0
19.08.2019 11:00:00 15,8 12,1 27 15 44 24 WSW 1015,1 16 0,1
19.08.2019 10:00:00 16,5 13,7 30 16 41 22 SSW 1014,3 49 0,0
19.08.2019 09:00:00 15,2 13,2 22 12 33 18 SSW 1013,8 55 0,0
19.08.2019 08:00:00 14,9 13,2 22 12 33 18 S 1013,5 0 0,0
19.08.2019 07:00:00 14,5 12,6 24 13 34 18 SSW 1013,1 0 0,0
19.08.2019 06:00:00 14,7 12,6 26 14 35 19 SSW 1012,6 0 0,0
19.08.2019 05:00:00 14,8 12,6 25 13 35 19 SSW 1012,1 0 0,0
19.08.2019 04:00:00 14,8 12,4 23 12 35 19 SSW 1012,1 0 0,1
19.08.2019 03:00:00 14,9 12,4 25 13 40 21 SSW 1011,7 0 0,0
19.08.2019 02:00:00 15,0 12,4 22 12 35 19 SSW 1011,5 0 0,0
19.08.2019 01:00:00 15,0 12,0 26 14 37 20 SSW 1011,2 0 0,0
19.08.2019 00:00:00 15,4 11,6 24 13 36 19 SSW 1010,5 0 0,0
18.08.2019 23:00:00 15,9 10,9 25 14 41 22 SSW 1010,2 0 0,0
18.08.2019 22:00:00 16,9 11,0 27 15 40 22 SSW 1009,6 0 0,0
18.08.2019 21:00:00 18,0 10,8 29 16 42 23 SSW 1009,3 45 0,0
18.08.2019 20:00:00 18,7 11,6 32 18 56 30 SSW 1008,7 60 0,0
18.08.2019 19:00:00 19,1 13,2 38 21 54 29 WSW 1008,4 60 0,0
18.08.2019 18:00:00 19,3 13,1 36 20 52 28 WSW 1008,0 60 0,0
18.08.2019 17:00:00 20,2 14,4 25 13 35 19 WSW 1007,3 58 0,0
18.08.2019 16:00:00 19,2 14,2 21 11 35 19 W 1007,2 60 0,0
18.08.2019 15:00:00 18,4 14,7 24 13 35 19 WSW 1006,8 28 0,0
18.08.2019 14:00:00 17,9 15,0 14 8 24 13 WSW 1006,0 3 0,0
18.08.2019 13:00:00 17,1 15,1 13 7 21 12 W 1005,6 5 0,0
18.08.2019 12:00:00 16,4 14,8 13 7 21 11 W 1004,9 3 0,0
18.08.2019 11:00:00 16,1 14,8 10 5 19 10 SW 1004,6 6 0,0
18.08.2019 10:00:00 15,6 14,3 13 7 21 11 SSW 1004,5 0 0,0
18.08.2019 09:00:00 15,6 14,3 16 9 25 13 S 1003,9 0 0,0
18.08.2019 08:00:00 15,7 14,3 18 10 30 16 S 1004,0 0 0,0
18.08.2019 07:00:00 16,0 14,6 22 12 30 16 S 1004,8 0 0,0
18.08.2019 06:00:00 16,2 14,8 20 11 28 15 S 1005,2 0 0,1
18.08.2019 05:00:00 16,4 14,7 18 10 27 14 S 1005,7 0 0,3
18.08.2019 04:00:00 16,5 14,6 19 10 30 16 SSW 1006,3 0 0,1
18.08.2019 03:00:00 16,7 14,5 20 11 30 16 SSW 1006,8 0 0,0
18.08.2019 02:00:00 16,7 14,3 22 12 27 15 SSW 1007,1 0 0,0
18.08.2019 01:00:00 16,5 14,0 17 9 29 15 SSW 1007,3 0 0,0
18.08.2019 00:00:00 16,7 13,9 22 12 34 18 SSW 1007,2 0 0,0

tt = Température de l'air
td = dewpoint
ff = Vitesse du vent
fx = gusts
dd = Direction du vent
ppp = reduced air pressure
sd = Ensoleillement
rr = Quantités de précipitations

stations d'obs. à proximité